Time;durP1;ratioP1;P1;durP2;ratioP2;P2;SDS_P1;SDS_P2;PMS_P1;PMS_P2;Temp;Humidity;BMP_temperature;BMP_pressure;BME280_temperature;BME280_humidity;BME280_pressure;Samples;Min_cycle;Max_cycle;Signal;HPM_P1;HPM_P2
2022/03/11 00:01:55;;;;;;;17.10;9.20;;;;;;;9.60;37.86;100983.41;5024125;28;20296;-64
2022/03/11 00:04:38;;;;;;;21.90;9.43;;;;;;;9.46;38.02;100978.44;5036204;27;20200;-64
2022/03/11 00:07:14;;;;;;;19.03;9.30;;;;;;;9.54;38.57;100981.28;5017602;28;20355;-65
2022/03/11 00:09:42;;;;;;;15.00;8.60;;;;;;;9.60;38.39;100975.44;5021322;28;20216;-65
2022/03/11 00:12:10;;;;;;;15.17;7.93;;;;;;;9.63;38.15;100972.56;5024196;28;20563;-64
2022/03/11 00:14:47;;;;;;;12.47;7.33;;;;;;;9.64;37.78;100971.59;5014794;28;20299;-64
2022/03/11 00:17:18;;;;;;;14.07;8.23;;;;;;;9.65;38.03;100975.91;5010851;28;20648;-64
2022/03/11 00:19:48;;;;;;;14.80;8.77;;;;;;;9.65;38.19;100973.28;5014307;28;20559;-64
2022/03/11 00:22:16;;;;;;;15.80;7.27;;;;;;;9.59;38.27;100965.81;5021903;28;20299;-64
2022/03/11 00:24:44;;;;;;;16.50;7.30;;;;;;;9.65;37.65;100968.81;5025397;28;20284;-64
2022/03/11 00:27:12;;;;;;;15.17;7.47;;;;;;;9.58;38.29;100969.47;5024600;28;20246;-63
2022/03/11 00:29:53;;;;;;;12.13;7.10;;;;;;;9.48;38.27;100971.22;5019106;28;20225;-64
2022/03/11 00:32:21;;;;;;;13.83;7.43;;;;;;;9.47;38.84;100969.53;5023126;28;20339;-63
2022/03/11 00:34:50;;;;;;;12.93;8.03;;;;;;;9.46;38.54;100967.84;5020209;28;20286;-63
2022/03/11 00:37:18;;;;;;;16.07;8.50;;;;;;;9.31;38.87;100970.81;5016368;28;20595;-63
2022/03/11 00:39:46;;;;;;;15.27;8.33;;;;;;;9.40;38.53;100962.13;5013086;28;20297;-62
2022/03/11 00:42:13;;;;;;;13.60;7.83;;;;;;;9.39;38.25;100968.38;5021073;28;20227;-63
2022/03/11 00:44:51;;;;;;;14.07;7.90;;;;;;;8.95;39.50;100972.06;5016543;28;20311;-64
2022/03/11 00:47:22;;;;;;;12.93;7.50;;;;;;;9.12;39.63;100965.38;5015734;28;20579;-64
2022/03/11 00:49:51;;;;;;;13.73;7.80;;;;;;;9.22;38.96;100966.28;5021685;28;20905;-63
2022/03/11 00:52:22;;;;;;;13.80;7.63;;;;;;;9.12;39.14;100965.38;5015816;28;20208;-63
2022/03/11 00:54:50;;;;;;;12.87;7.30;;;;;;;9.04;39.57;100967.81;5015102;28;20221;-63
2022/03/11 00:57:17;;;;;;;13.93;7.67;;;;;;;8.50;39.56;100967.81;5031726;27;20605;-63
2022/03/11 00:59:46;;;;;;;14.17;7.33;;;;;;;8.16;40.27;100959.06;5017513;28;20226;-63
2022/03/11 01:02:14;;;;;;;15.13;7.57;;;;;;;8.59;39.65;100961.81;5018048;28;20226;-63
2022/03/11 01:04:42;;;;;;;15.27;7.90;;;;;;;8.81;39.38;100963.53;5024047;28;20973;-63
2022/03/11 01:07:11;;;;;;;18.63;8.00;;;;;;;8.77;39.68;100954.19;5021987;28;20259;-63
2022/03/11 01:09:39;;;;;;;16.00;7.70;;;;;;;8.97;39.92;100950.75;5020203;28;20294;-63
2022/03/11 01:12:07;;;;;;;18.63;8.07;;;;;;;8.83;40.01;100953.69;5021605;28;20708;-63
2022/03/11 01:14:39;;;;;;;13.00;7.80;;;;;;;8.85;39.63;100944.66;5014753;28;20212;-64
2022/03/11 01:17:07;;;;;;;14.23;8.07;;;;;;;9.06;39.51;100949.97;5019946;28;20203;-63
2022/03/11 01:19:35;;;;;;;15.03;7.87;;;;;;;9.00;38.80;100943.41;5018615;28;20601;-63
2022/03/11 01:22:04;;;;;;;16.13;7.73;;;;;;;9.02;39.37;100938.00;5016340;28;20242;-62
2022/03/11 01:24:33;;;;;;;14.77;7.30;;;;;;;8.96;39.05;100930.56;5032541;27;20302;-63
2022/03/11 01:27:01;;;;;;;14.73;7.53;;;;;;;9.09;38.84;100935.66;5023738;28;20615;-63
2022/03/11 01:29:29;;;;;;;11.77;7.03;;;;;;;8.95;39.27;100931.53;5014839;28;20233;-63
2022/03/11 01:31:57;;;;;;;13.10;8.13;;;;;;;8.99;39.04;100938.22;5021936;28;20298;-63
2022/03/11 01:34:24;;;;;;;12.53;7.37;;;;;;;8.99;39.18;100930.28;5015177;28;20642;-63
2022/03/11 01:36:55;;;;;;;14.03;8.30;;;;;;;9.10;39.33;100935.53;5061472;27;20290;-63
2022/03/11 01:39:23;;;;;;;14.23;8.37;;;;;;;9.05;40.20;100932.44;5020751;28;20290;-63
2022/03/11 01:41:52;;;;;;;14.40;7.80;;;;;;;9.13;40.21;100932.66;5019322;28;20233;-62
2022/03/11 01:44:25;;;;;;;11.77;7.43;;;;;;;9.06;39.96;100932.31;5017462;28;20640;-62
2022/03/11 01:46:53;;;;;;;14.13;7.93;;;;;;;8.64;40.59;100934.03;5019214;28;20282;-63
2022/03/11 01:49:21;;;;;;;14.97;8.17;;;;;;;8.85;40.09;100930.59;5016672;28;20275;-63
2022/03/11 01:51:49;;;;;;;18.17;8.17;;;;;;;8.82;41.18;100926.41;5017192;28;20207;-63
2022/03/11 01:54:18;;;;;;;13.37;8.10;;;;;;;8.83;40.63;100929.88;5019280;28;20242;-63
2022/03/11 01:56:45;;;;;;;13.33;8.17;;;;;;;8.96;40.26;100939.34;5015904;28;20732;-63
2022/03/11 01:59:18;;;;;;;15.23;8.00;;;;;;;8.81;40.29;100926.50;5015620;28;20203;-63
2022/03/11 02:01:46;;;;;;;15.47;7.87;;;;;;;8.92;40.36;100926.47;5023137;28;20250;-63
2022/03/11 02:04:14;;;;;;;15.27;9.10;;;;;;;8.98;40.03;100918.03;5016191;28;20683;-63
2022/03/11 02:06:42;;;;;;;15.33;7.93;;;;;;;8.91;40.10;100919.50;5015752;28;20237;-64
2022/03/11 02:09:19;;;;;;;15.47;8.60;;;;;;;8.80;40.47;100923.03;5017431;28;22082;-63
2022/03/11 02:11:47;;;;;;;13.90;7.67;;;;;;;8.90;40.53;100917.81;5019241;28;20630;-64
2022/03/11 02:14:16;;;;;;;16.77;8.80;;;;;;;8.63;41.35;100910.34;5018849;28;20205;-63
2022/03/11 02:16:54;;;;;;;;;;;;;;;;;;;;;
2022/03/11 02:19:30;;;;;;;14.30;8.60;;;;;;;8.64;40.78;100904.94;5013174;28;20687;-64
2022/03/11 02:22:05;;;;;;;15.37;8.57;;;;;;;8.72;40.65;100911.41;5017071;28;20241;-63
2022/03/11 02:24:34;;;;;;;16.07;9.10;;;;;;;8.81;40.80;100903.56;5021033;28;20299;-63
2022/03/11 02:27:02;;;;;;;15.47;9.50;;;;;;;8.80;40.85;100906.31;5020090;28;20216;-64
2022/03/11 02:29:30;;;;;;;15.37;9.33;;;;;;;8.66;40.99;100908.31;5016067;28;21790;-63
2022/03/11 02:31:57;;;;;;;16.40;9.07;;;;;;;8.72;40.93;100911.41;5015161;28;20236;-63
2022/03/11 02:34:25;;;;;;;18.77;10.23;;;;;;;8.79;40.74;100909.97;5016381;28;20202;-63
2022/03/11 02:36:53;;;;;;;17.67;9.93;;;;;;;8.88;40.82;100910.00;5019744;28;20318;-64
2022/03/11 02:39:21;;;;;;;17.20;10.33;;;;;;;8.72;41.17;100906.94;5022815;28;20208;-63
2022/03/11 02:41:51;;;;;;;17.73;9.97;;;;;;;8.67;41.40;100907.34;5016147;28;20238;-64
2022/03/11 02:44:19;;;;;;;16.97;8.80;;;;;;;8.75;40.98;100908.53;5019609;28;20511;-63
2022/03/11 02:46:46;;;;;;;19.80;9.97;;;;;;;8.82;41.15;100907.88;5018176;28;20273;-64
2022/03/11 02:49:14;;;;;;;16.27;9.50;;;;;;;8.50;41.38;100910.53;5015830;28;20671;-63
2022/03/11 02:51:42;;;;;;;16.30;9.50;;;;;;;8.50;41.52;100905.25;5018947;28;20285;-63
2022/03/11 02:54:10;;;;;;;14.57;9.00;;;;;;;8.72;41.21;100904.31;5019276;28;20305;-63
2022/03/11 02:56:37;;;;;;;17.00;9.50;;;;;;;8.64;41.17;100904.94;5022318;28;20586;-63
2022/03/11 02:59:06;;;;;;;16.30;10.13;;;;;;;8.74;40.84;100912.13;5027327;27;20436;-63
2022/03/11 03:01:34;;;;;;;17.50;9.93;;;;;;;8.73;40.84;100908.63;5026576;28;20220;-63
2022/03/11 03:04:02;;;;;;;18.40;10.33;;;;;;;8.29;41.75;100907.75;5029547;27;20218;-63
2022/03/11 03:06:30;;;;;;;17.97;10.60;;;;;;;8.51;41.72;100916.66;5022227;28;20242;-63
2022/03/11 03:08:59;;;;;;;17.33;10.17;;;;;;;8.55;41.46;100916.25;5017443;28;20254;-63
2022/03/11 03:11:27;;;;;;;18.87;9.53;;;;;;;8.59;41.53;100912.41;5019135;28;20232;-63
2022/03/11 03:13:59;;;;;;;18.67;10.10;;;;;;;8.41;41.73;100905.13;5022606;28;20202;-63
2022/03/11 03:16:28;;;;;;;17.67;10.27;;;;;;;8.56;41.33;100917.09;5030718;27;20308;-63
2022/03/11 03:18:56;;;;;;;16.50;9.40;;;;;;;8.46;41.52;100911.72;5016981;28;20212;-63
2022/03/11 03:21:39;;;;;;;16.67;10.53;;;;;;;8.55;41.84;100908.34;5032891;27;20251;-63
2022/03/11 03:24:08;;;;;;;16.20;9.80;;;;;;;8.44;41.86;100911.03;5020747;28;20218;-63
2022/03/11 03:26:35;;;;;;;18.10;10.10;;;;;;;8.25;42.24;100910.78;5019009;28;20641;-63
2022/03/11 03:29:03;;;;;;;17.50;9.63;;;;;;;8.49;42.76;100913.28;5021353;28;20770;-63
2022/03/11 03:31:32;;;;;;;17.00;9.93;;;;;;;8.41;42.56;100913.06;5023518;27;20227;-63
2022/03/11 03:34:00;;;;;;;23.10;10.87;;;;;;;7.71;43.41;100908.88;5014127;28;20207;-63
2022/03/11 03:36:28;;;;;;;18.97;11.03;;;;;;;7.65;43.85;100906.69;5021116;28;20203;-62
2022/03/11 03:38:56;;;;;;;16.63;10.10;;;;;;;7.97;43.86;100906.84;5037687;27;20682;-63
2022/03/11 03:41:23;;;;;;;19.97;11.13;;;;;;;7.88;44.31;100897.00;5021141;28;20211;-63
2022/03/11 03:43:51;;;;;;;18.03;10.30;;;;;;;7.91;44.16;100896.78;5019840;28;20202;-63
2022/03/11 03:46:19;;;;;;;16.87;10.20;;;;;;;7.91;44.37;100900.25;5014861;28;20251;-63
2022/03/11 03:48:48;;;;;;;20.30;10.87;;;;;;;7.83;43.90;100900.00;5014077;28;20202;-63
2022/03/11 03:51:16;;;;;;;17.83;10.20;;;;;;;7.84;44.13;100901.66;5016106;28;20226;-63
2022/03/11 03:53:44;;;;;;;20.47;11.30;;;;;;;7.75;44.27;100909.47;5019117;28;20230;-63
2022/03/11 03:56:11;;;;;;;20.23;10.60;;;;;;;8.01;43.14;100910.06;5021436;28;20292;-63
2022/03/11 03:58:39;;;;;;;18.67;10.77;;;;;;;7.84;43.93;100916.66;5020270;28;20210;-63
2022/03/11 04:01:07;;;;;;;18.97;11.23;;;;;;;7.93;43.59;100911.50;5019041;28;20663;-63
2022/03/11 04:03:36;;;;;;;17.93;10.20;;;;;;;7.93;43.78;100915.94;5017918;28;20228;-63
2022/03/11 04:06:15;;;;;;;20.83;11.00;;;;;;;7.61;44.88;100914.97;5014317;28;20678;-63
2022/03/11 04:08:43;;;;;;;18.50;10.47;;;;;;;7.59;44.62;100908.97;5041089;27;20606;-62
2022/03/11 04:11:11;;;;;;;18.93;11.40;;;;;;;7.80;43.73;100910.81;5022504;28;20225;-62
2022/03/11 04:13:53;;;;;;;18.50;11.27;;;;;;;7.82;43.91;100903.63;5021775;28;20201;-63
2022/03/11 04:16:24;;;;;;;19.63;11.63;;;;;;;7.62;44.12;100906.94;5018145;28;20228;-63
2022/03/11 04:18:52;;;;;;;21.67;12.10;;;;;;;7.87;43.54;100905.88;5018283;28;20213;-63
2022/03/11 04:21:39;;;;;;;22.53;12.17;;;;;;;7.67;44.41;100909.22;5021739;28;20221;-63
2022/03/11 04:24:13;;;;;;;21.77;11.83;;;;;;;7.82;44.13;100910.69;5018831;28;20287;-64
2022/03/11 04:26:43;;;;;;;21.83;12.20;;;;;;;7.90;43.33;100910.94;5013262;28;20200;-63
2022/03/11 04:29:11;;;;;;;24.57;11.77;;;;;;;7.68;43.11;100911.75;5023334;28;20657;-63
2022/03/11 04:31:39;;;;;;;20.97;11.70;;;;;;;7.84;42.79;100900.81;5021022;28;20244;-63
2022/03/11 04:34:21;;;;;;;17.70;11.17;;;;;;;7.86;42.72;100914.75;5016713;28;20312;-63
2022/03/11 04:36:50;;;;;;;20.47;13.03;;;;;;;7.84;42.46;100917.50;5021838;28;20211;-63
2022/03/11 04:39:18;;;;;;;21.63;12.67;;;;;;;7.92;42.55;100914.28;5018362;28;20295;-63
2022/03/11 04:41:46;;;;;;;21.57;12.63;;;;;;;7.85;42.54;100919.19;5018573;28;20213;-63
2022/03/11 04:44:13;;;;;;;22.57;12.93;;;;;;;7.63;42.60;100921.00;5011640;28;20296;-63
2022/03/11 04:46:41;;;;;;;21.87;13.07;;;;;;;7.59;42.63;100916.91;5018216;28;20244;-63
2022/03/11 04:49:09;;;;;;;25.63;13.33;;;;;;;7.42;42.97;100912.91;5018418;28;20214;-64
2022/03/11 04:51:38;;;;;;;21.77;12.77;;;;;;;7.47;42.72;100913.41;5021261;28;20250;-63
2022/03/11 04:54:21;;;;;;;23.50;13.27;;;;;;;7.63;42.33;100915.72;5010881;28;20216;-63
2022/03/11 04:56:49;;;;;;;20.57;13.00;;;;;;;7.44;42.59;100914.50;5020264;28;20208;-64
2022/03/11 04:59:16;;;;;;;21.40;12.70;;;;;;;7.52;42.50;100921.81;5023296;28;20201;-63
2022/03/11 05:01:44;;;;;;;22.57;14.03;;;;;;;7.45;42.56;100924.09;5021921;28;20219;-63
2022/03/11 05:04:12;;;;;;;22.87;13.90;;;;;;;7.77;41.83;100918.97;5014489;28;20228;-63
2022/03/11 05:06:40;;;;;;;23.93;13.43;;;;;;;7.39;42.44;100915.78;5010953;28;20201;-63
2022/03/11 05:09:08;;;;;;;20.83;12.93;;;;;;;7.45;42.62;100916.16;5018508;28;20289;-63
2022/03/11 05:11:37;;;;;;;22.83;12.70;;;;;;;7.52;42.39;100919.16;5018496;28;20219;-64
2022/03/11 05:14:05;;;;;;;30.93;13.37;;;;;;;7.56;42.38;100921.44;5014522;28;20209;-63
2022/03/11 05:16:33;;;;;;;26.83;12.83;;;;;;;7.40;42.35;100917.47;5046315;27;20229;-63
2022/03/11 05:19:08;;;;;;;23.30;13.23;;;;;;;7.63;42.06;100923.63;5019351;28;20580;-63
2022/03/11 05:21:36;;;;;;;25.23;13.57;;;;;;;7.68;42.02;100922.31;5018081;28;20200;-63
2022/03/11 05:24:05;;;;;;;24.13;14.13;;;;;;;7.68;41.98;100921.47;5023335;28;20228;-63
2022/03/11 05:26:33;;;;;;;24.93;12.70;;;;;;;7.68;41.62;100922.31;5052356;27;20633;-64
2022/03/11 05:29:02;;;;;;;23.80;12.63;;;;;;;7.54;41.96;100923.38;5021408;28;20213;-63
2022/03/11 05:31:30;;;;;;;25.63;12.70;;;;;;;7.56;41.87;100920.63;5012696;28;20343;-63
2022/03/11 05:33:58;;;;;;;20.50;12.07;;;;;;;7.75;41.45;100918.22;5047693;27;20273;-64
2022/03/11 05:36:25;;;;;;;25.03;13.60;;;;;;;7.49;42.13;100930.78;5037416;27;20687;-62
2022/03/11 05:38:53;;;;;;;24.00;13.60;;;;;;;7.41;42.31;100925.25;5047038;27;20331;-63
2022/03/11 05:41:21;;;;;;;23.37;13.53;;;;;;;7.54;41.85;100926.03;5023049;28;20275;-63
2022/03/11 05:43:48;;;;;;;23.47;12.83;;;;;;;7.53;42.06;100924.34;5023136;28;20572;-63
2022/03/11 05:46:17;;;;;;;20.83;12.70;;;;;;;7.52;41.93;100916.53;5026963;28;20249;-64
2022/03/11 05:48:45;;;;;;;21.57;13.13;;;;;;;7.57;41.84;100924.94;5026459;28;20201;-63
2022/03/11 05:51:21;;;;;;;30.97;14.03;;;;;;;7.37;41.85;100917.72;5024470;28;20715;-63
2022/03/11 05:53:49;;;;;;;25.53;13.77;;;;;;;7.16;42.34;100930.72;5020282;28;20687;-63
2022/03/11 05:56:16;;;;;;;22.67;13.13;;;;;;;7.39;42.31;100927.16;5019019;28;20295;-62
2022/03/11 05:58:44;;;;;;;25.80;13.03;;;;;;;7.21;42.26;100938.31;5019182;28;20308;-63
2022/03/11 06:01:12;;;;;;;24.00;13.50;;;;;;;7.25;42.11;100934.47;5017368;28;20311;-64
2022/03/11 06:03:41;;;;;;;25.53;13.13;;;;;;;6.86;42.28;100927.75;5022692;28;20292;-63
2022/03/11 06:06:09;;;;;;;25.93;13.10;;;;;;;7.03;42.04;100933.44;5015383;28;20308;-64
2022/03/11 06:08:40;;;;;;;24.07;13.33;;;;;;;6.98;42.28;100932.94;5015747;28;20315;-63
2022/03/11 06:11:08;;;;;;;24.43;13.17;;;;;;;7.15;42.57;100927.22;5015542;28;20567;-63
2022/03/11 06:13:36;;;;;;;27.43;12.73;;;;;;;7.29;42.19;100920.09;5019270;28;20204;-63
2022/03/11 06:16:05;;;;;;;26.03;13.10;;;;;;;7.00;42.38;100931.03;5017595;28;20233;-63
2022/03/11 06:18:33;;;;;;;24.10;12.93;;;;;;;7.08;42.43;100933.94;5019099;28;20205;-62
2022/03/11 06:21:02;;;;;;;23.97;12.87;;;;;;;7.36;41.70;100926.59;5017248;28;20657;-64
2022/03/11 06:23:32;;;;;;;22.43;12.83;;;;;;;7.40;41.92;100925.38;5015995;28;20209;-63
2022/03/11 06:26:00;;;;;;;24.43;12.27;;;;;;;7.41;41.52;100925.25;5017418;28;20300;-63
2022/03/11 06:28:30;;;;;;;23.13;12.77;;;;;;;7.53;41.42;100936.69;5016268;28;20595;-64
2022/03/11 06:30:58;;;;;;;24.63;13.30;;;;;;;7.43;41.55;100940.97;5023673;27;20308;-64
2022/03/11 06:33:25;;;;;;;23.60;12.67;;;;;;;7.41;41.20;100933.19;5022072;27;20236;-64
2022/03/11 06:35:53;;;;;;;54.87;16.73;;;;;;;7.40;40.87;100938.56;5025197;28;20300;-64
2022/03/11 06:38:22;;;;;;;30.60;13.83;;;;;;;7.50;40.41;100943.03;5027645;28;20292;-63
2022/03/11 06:40:50;;;;;;;38.77;14.50;;;;;;;7.30;40.17;100945.53;5024851;28;20303;-63
2022/03/11 06:43:18;;;;;;;35.23;13.60;;;;;;;7.45;40.74;100952.28;5020035;28;20201;-61
2022/03/11 06:45:46;;;;;;;30.37;14.20;;;;;;;7.62;40.62;100943.91;5022835;28;20225;-62
2022/03/11 06:48:13;;;;;;;31.53;13.97;;;;;;;7.53;40.05;100944.59;5044594;27;20656;-62
2022/03/11 06:50:42;;;;;;;24.43;13.43;;;;;;;7.34;40.49;100939.88;5026991;28;20292;-62
2022/03/11 06:53:09;;;;;;;23.10;13.00;;;;;;;7.53;40.16;100934.91;5027614;28;20225;-60
2022/03/11 06:55:38;;;;;;;23.07;12.37;;;;;;;7.37;40.34;100938.81;5038517;27;20234;-62
2022/03/11 06:58:06;;;;;;;22.53;13.00;;;;;;;7.32;40.31;100935.66;5023347;28;20275;-63
2022/03/11 07:00:34;;;;;;;26.97;12.73;;;;;;;7.71;39.61;100934.44;5023057;28;20613;-63
2022/03/11 07:03:02;;;;;;;24.97;13.00;;;;;;;7.74;39.59;100937.66;5026328;28;20609;-59
2022/03/11 07:05:30;;;;;;;21.53;12.10;;;;;;;7.55;39.59;100937.41;5028844;28;20684;-59
2022/03/11 07:07:58;;;;;;;33.17;12.90;;;;;;;7.67;39.66;100941.75;5028077;27;20624;-60
2022/03/11 07:10:26;;;;;;;23.13;12.53;;;;;;;7.78;38.67;100946.19;5023796;28;20244;-61
2022/03/11 07:12:58;;;;;;;28.23;11.60;;;;;;;7.77;39.05;100950.63;5024382;28;20497;-60
2022/03/11 07:15:26;;;;;;;21.30;12.10;;;;;;;7.49;39.19;100949.25;5025919;28;20213;-62
2022/03/11 07:17:58;;;;;;;18.87;10.67;;;;;;;7.77;38.51;100953.28;5022290;28;20283;-62
2022/03/11 07:20:26;;;;;;;22.33;11.30;;;;;;;7.66;38.53;100950.63;5025049;28;20245;-62
2022/03/11 07:23:14;;;;;;;20.63;10.60;;;;;;;7.59;38.99;100952.06;5023180;28;20200;-62
2022/03/11 07:25:45;;;;;;;19.30;11.90;;;;;;;7.42;38.58;100952.50;5031200;27;20647;-62
2022/03/11 07:28:14;;;;;;;19.00;11.10;;;;;;;7.29;38.61;100957.03;5018225;28;20639;-62
2022/03/11 07:30:42;;;;;;;22.50;11.47;;;;;;;7.66;38.15;100955.91;5024138;28;20205;-62
2022/03/11 07:33:11;;;;;;;21.97;10.77;;;;;;;7.62;38.25;100954.47;5013894;28;20727;-61
2022/03/11 07:35:39;;;;;;;17.43;10.73;;;;;;;7.77;37.86;100948.00;5014462;28;20263;-61
2022/03/11 07:38:07;;;;;;;21.17;10.43;;;;;;;7.72;37.39;100933.47;5037906;27;20202;-63
2022/03/11 07:40:35;;;;;;;18.57;10.30;;;;;;;7.91;37.22;100945.16;5019566;28;20291;-62
2022/03/11 07:43:03;;;;;;;19.37;10.80;;;;;;;7.83;37.67;100950.16;5019534;28;20296;-62
2022/03/11 07:45:32;;;;;;;18.97;10.57;;;;;;;7.77;37.31;100939.22;5020269;28;20236;-63
2022/03/11 07:47:59;;;;;;;19.57;10.27;;;;;;;7.66;37.65;100950.63;5030297;27;20488;-61
2022/03/11 07:50:27;;;;;;;23.73;11.03;;;;;;;7.98;37.30;100950.78;5015719;28;20209;-61
2022/03/11 07:52:55;;;;;;;17.50;9.97;;;;;;;8.18;37.02;100955.31;5015370;28;20230;-61
2022/03/11 07:55:23;;;;;;;17.30;9.10;;;;;;;7.92;36.79;100960.00;5016055;28;20647;-62
2022/03/11 07:57:50;;;;;;;18.43;9.40;;;;;;;7.94;36.99;100958.09;5014971;28;20302;-63
2022/03/11 08:00:19;;;;;;;17.27;9.07;;;;;;;8.23;36.78;100962.91;5016117;28;20697;-62
2022/03/11 08:02:48;;;;;;;17.90;10.03;;;;;;;8.15;37.02;100960.03;5021451;28;20214;-62
2022/03/11 08:05:16;;;;;;;16.30;10.03;;;;;;;8.05;36.89;100956.41;5022693;27;20210;-63
2022/03/11 08:07:46;;;;;;;17.13;10.30;;;;;;;8.23;36.88;100957.63;5023923;28;20241;-63
2022/03/11 08:10:14;;;;;;;16.17;9.53;;;;;;;8.29;36.41;100959.75;5024000;28;20295;-63
2022/03/11 08:12:42;;;;;;;16.60;9.90;;;;;;;8.34;36.33;100956.81;5024798;28;20238;-62
2022/03/11 08:15:11;;;;;;;17.67;9.93;;;;;;;8.54;36.05;100958.66;5023552;28;20214;-63
2022/03/11 08:17:40;;;;;;;15.17;8.93;;;;;;;8.61;36.09;100955.44;5020533;28;20202;-64
2022/03/11 08:20:10;;;;;;;17.80;9.93;;;;;;;8.53;36.15;100951.72;5024399;28;20662;-65
2022/03/11 08:22:38;;;;;;;18.23;10.63;;;;;;;8.90;36.04;100952.22;5017567;28;20208;-63
2022/03/11 08:25:08;;;;;;;16.00;9.63;;;;;;;9.24;35.13;100943.16;5022030;28;20214;-62
2022/03/11 08:27:36;;;;;;;17.03;9.53;;;;;;;9.37;34.64;100949.13;5019368;28;20210;-63
2022/03/11 08:30:04;;;;;;;19.03;10.00;;;;;;;9.36;34.65;100950.09;5017889;28;20579;-63
2022/03/11 08:32:32;;;;;;;19.00;10.40;;;;;;;9.67;34.05;100951.00;5023173;28;20235;-62
2022/03/11 08:35:00;;;;;;;20.83;11.57;;;;;;;9.53;33.58;100953.97;5018077;28;20243;-63
2022/03/11 08:37:37;;;;;;;17.80;10.10;;;;;;;9.80;34.48;100942.81;5018468;28;20230;-62
2022/03/11 08:40:07;;;;;;;16.13;9.93;;;;;;;9.98;33.84;100941.25;5020842;28;20209;-65
2022/03/11 08:42:35;;;;;;;16.80;10.40;;;;;;;10.27;33.40;100944.03;5015646;28;20657;-63
2022/03/11 08:45:09;;;;;;;17.63;10.00;;;;;;;10.71;32.46;100947.22;5016184;28;20611;-64
2022/03/11 08:47:43;;;;;;;17.27;10.93;;;;;;;11.39;31.52;100943.59;5015819;28;20197;-64
2022/03/11 08:50:13;;;;;;;14.53;9.20;;;;;;;12.35;30.79;100931.81;5020062;28;20688;-64
2022/03/11 08:52:42;;;;;;;15.90;10.47;;;;;;;11.97;30.58;100932.84;5020510;28;20719;-64
2022/03/11 08:55:12;;;;;;;19.47;10.90;;;;;;;12.61;29.77;100924.81;5020963;28;20215;-65
2022/03/11 08:57:40;;;;;;;14.27;10.10;;;;;;;12.74;29.27;100919.13;5025711;28;20219;-63
2022/03/11 09:00:12;;;;;;;16.57;11.33;;;;;;;12.96;28.88;100910.69;5018735;28;20647;-63
2022/03/11 09:02:40;;;;;;;16.97;11.37;;;;;;;14.77;26.89;100904.38;5028824;28;20597;-62
2022/03/11 09:05:09;;;;;;;19.50;11.53;;;;;;;18.55;22.86;100894.34;5049210;27;20228;-66
2022/03/11 09:07:37;;;;;;;15.00;10.00;;;;;;;20.71;20.46;100890.72;5019850;28;20236;-63
2022/03/11 09:10:13;;;;;;;16.50;10.87;;;;;;;20.87;20.34;100890.31;5017127;28;20449;-64
2022/03/11 09:12:41;;;;;;;14.23;10.20;;;;;;;22.42;18.57;100891.38;5018157;28;20240;-65
2022/03/11 09:15:10;;;;;;;14.50;10.40;;;;;;;19.81;20.44;100897.13;5020141;28;20272;-65
2022/03/11 09:17:39;;;;;;;15.27;10.53;;;;;;;21.04;19.83;100894.28;5020091;28;20205;-63
2022/03/11 09:20:13;;;;;;;17.60;10.07;;;;;;;21.23;19.00;100889.97;5024921;27;20231;-62
2022/03/11 09:22:48;;;;;;;14.68;10.07;;;;;;;23.66;17.40;100884.50;5021503;27;20749;-64
2022/03/11 09:25:18;;;;;;;14.85;10.38;;;;;;;25.67;16.32;100882.91;5040591;27;20304;-64
2022/03/11 09:27:46;;;;;;;12.82;10.13;;;;;;;25.17;16.17;100887.09;5048973;27;20307;-64
2022/03/11 09:30:14;;;;;;;16.23;11.10;;;;;;;24.35;16.29;100890.38;5049463;27;20296;-64
2022/03/11 09:32:46;;;;;;;19.38;10.18;;;;;;;19.85;19.60;100882.28;5018612;28;20205;-66
2022/03/11 09:35:15;;;;;;;14.43;10.43;;;;;;;18.88;21.42;100884.81;5021599;28;20709;-64
2022/03/11 09:37:48;;;;;;;14.73;10.43;;;;;;;24.66;16.53;100874.91;5014624;28;20262;-64
2022/03/11 09:40:16;;;;;;;15.73;10.45;;;;;;;21.70;17.93;100867.31;5018821;28;20354;-63
2022/03/11 09:42:45;;;;;;;14.38;9.35;;;;;;;20.49;19.16;100880.06;5016350;28;20221;-63
2022/03/11 09:45:13;;;;;;;18.92;10.35;;;;;;;21.97;18.02;100878.88;5020133;28;20225;-63
2022/03/11 09:47:44;;;;;;;14.90;10.23;;;;;;;23.82;17.37;100879.31;5021033;28;20627;-63
2022/03/11 09:50:12;;;;;;;11.48;9.70;;;;;;;27.76;14.18;100885.72;5027251;28;20236;-62
2022/03/11 09:52:42;;;;;;;14.05;10.27;;;;;;;27.60;14.71;100881.13;5022465;28;20294;-63
2022/03/11 09:55:11;;;;;;;15.07;10.60;;;;;;;29.19;13.71;100869.88;5020066;28;20286;-62
2022/03/11 09:57:39;;;;;;;21.52;10.40;;;;;;;31.67;12.18;100861.56;5029681;28;20203;-63
2022/03/11 10:00:10;;;;;;;12.73;10.10;;;;;;;29.33;12.99;100868.31;5032556;28;20582;-65
2022/03/11 10:02:38;;;;;;;12.00;9.90;;;;;;;28.24;13.46;100865.91;5028141;28;20200;-65
2022/03/11 10:05:08;;;;;;;14.07;10.32;;;;;;;29.45;12.87;100863.53;5027429;28;20676;-65
2022/03/11 10:08:01;;;;;;;13.70;10.38;;;;;;;27.05;14.36;100879.16;5019389;28;20664;-66
2022/03/11 10:10:30;;;;;;;12.02;9.98;;;;;;;25.48;15.01;100875.91;5022873;28;20220;-65
2022/03/11 10:13:08;;;;;;;11.95;9.52;;;;;;;25.16;15.73;100877.28;5014861;28;20204;-64
2022/03/11 10:15:40;;;;;;;17.85;11.32;;;;;;;22.97;17.05;100888.16;5018231;28;20211;-62
2022/03/11 10:18:14;;;;;;;13.02;11.15;;;;;;;25.33;15.34;100883.72;5022482;28;20474;-62
2022/03/11 10:20:42;;;;;;;11.82;10.15;;;;;;;26.38;15.09;100870.84;5023628;28;20209;-64
2022/03/11 10:23:13;;;;;;;13.00;10.23;;;;;;;23.57;17.24;100882.03;5027239;28;20222;-62
2022/03/11 10:25:42;;;;;;;20.83;11.10;;;;;;;23.38;17.04;100883.03;5018092;28;20630;-62
2022/03/11 10:28:14;;;;;;;12.63;10.13;;;;;;;22.25;18.71;100875.88;5015367;28;20236;-63
2022/03/11 10:30:45;;;;;;;13.13;9.80;;;;;;;26.08;15.85;100872.91;5021425;28;20240;-65
2022/03/11 10:33:14;;;;;;;11.65;9.80;;;;;;;28.30;13.80;100861.34;5018139;28;20287;-62
2022/03/11 10:35:44;;;;;;;14.77;10.50;;;;;;;27.98;14.03;100856.56;5027070;28;20287;-62
2022/03/11 10:38:14;;;;;;;13.70;9.95;;;;;;;26.97;14.83;100865.94;5015949;28;20198;-62
2022/03/11 10:40:43;;;;;;;15.02;9.55;;;;;;;28.35;13.88;100856.75;5022123;28;20298;-63
2022/03/11 10:43:14;;;;;;;10.27;9.18;;;;;;;32.65;11.88;100847.09;5028863;28;20286;-64
2022/03/11 10:45:48;;;;;;;11.02;9.85;;;;;;;29.34;13.01;100859.03;5050355;28;20225;-64
2022/03/11 10:48:17;;;;;;;14.20;10.85;;;;;;;24.89;15.58;100858.69;5023571;28;20211;-64
2022/03/11 10:50:45;;;;;;;10.75;9.50;;;;;;;26.31;15.07;100853.00;5013159;28;20235;-64
2022/03/11 10:53:13;;;;;;;12.05;10.57;;;;;;;27.54;14.71;100857.59;5030181;28;20299;-64
2022/03/11 10:55:43;;;;;;;11.45;9.88;;;;;;;23.39;17.91;100859.53;5023394;28;20225;-62
2022/03/11 10:58:16;;;;;;;14.88;10.60;;;;;;;24.98;16.32;100851.91;5049929;28;20300;-64
2022/03/11 11:00:45;;;;;;;14.20;10.75;;;;;;;26.51;15.76;100856.13;5022114;28;20254;-63
2022/03/11 11:03:14;;;;;;;13.27;10.10;;;;;;;25.92;14.97;100844.59;5072534;28;20676;-64
2022/03/11 11:05:43;;;;;;;12.65;9.95;;;;;;;23.85;16.95;100842.81;5020987;28;20212;-66
2022/03/11 11:08:10;;;;;;;11.43;10.15;;;;;;;23.29;17.89;100835.69;5019773;28;20240;-64
2022/03/11 11:10:39;;;;;;;12.65;10.65;;;;;;;19.09;20.54;100839.09;5024262;28;20240;-65
2022/03/11 11:13:09;;;;;;;12.43;10.25;;;;;;;17.42;22.51;100837.50;5024241;28;20217;-66
2022/03/11 11:15:38;;;;;;;14.77;10.60;;;;;;;17.35;22.59;100832.06;5018270;28;20284;-66
2022/03/11 11:18:12;;;;;;;12.05;10.10;;;;;;;19.04;21.17;100830.78;5038133;27;20208;-64
2022/03/11 11:20:46;;;;;;;16.17;10.60;;;;;;;20.13;20.31;100829.19;5036229;28;20744;-64
2022/03/11 11:23:15;;;;;;;13.10;10.88;;;;;;;18.95;21.81;100826.59;5029317;27;20205;-64
2022/03/11 11:25:44;;;;;;;12.75;11.10;;;;;;;18.91;21.60;100814.53;5032662;27;20672;-66
2022/03/11 11:28:17;;;;;;;13.80;10.75;;;;;;;20.30;20.01;100810.81;5033402;27;20219;-66
2022/03/11 11:30:55;;;;;;;13.02;10.57;;;;;;;19.17;20.87;100817.44;5020700;28;20241;-64